Time;durP1;ratioP1;P1;durP2;ratioP2;P2;SDS_P1;SDS_P2;PMS_P1;PMS_P2;Temp;Humidity;BMP_temperature;BMP_pressure;BME280_temperature;BME280_humidity;BME280_pressure;Samples;Min_cycle;Max_cycle;Signal;HPM_P1;HPM_P2
2021/04/23 00:00:56;;;;;;;19.17;6.50;;;;;;;-146.18;100.00;67994.34;9976435;29;20083;-66
2021/04/23 00:06:01;;;;;;;13.07;5.90;;;;;;;-146.18;100.00;67994.34;9985738;29;20153;-66
2021/04/23 00:10:58;;;;;;;19.35;6.25;;;;;;;-146.18;100.00;67994.34;9984138;29;20059;-67
2021/04/23 00:15:55;;;;;;;20.17;7.00;;;;;;;-146.18;100.00;67994.34;9991737;29;20072;-68
2021/04/23 00:20:52;;;;;;;19.25;6.68;;;;;;;-146.18;100.00;67994.34;9987345;29;20100;-67
2021/04/23 00:25:49;;;;;;;27.05;6.53;;;;;;;-146.18;100.00;67994.34;9985517;29;20044;-68
2021/04/23 00:30:50;;;;;;;20.40;6.57;;;;;;;-146.18;100.00;67994.34;9991335;29;20467;-68
2021/04/23 00:35:49;;;;;;;15.38;5.60;;;;;;;-146.18;100.00;67994.34;9991491;29;20505;-67
2021/04/23 00:40:52;;;;;;;24.58;8.15;;;;;;;-146.18;100.00;67994.34;9986638;29;20068;-67
2021/04/23 00:45:50;;;;;;;21.85;6.57;;;;;;;-146.18;100.00;67994.34;9991765;29;20040;-68
2021/04/23 00:50:49;;;;;;;17.02;6.82;;;;;;;-146.18;100.00;67994.34;9989856;29;20143;-68
2021/04/23 00:55:45;;;;;;;22.73;7.68;;;;;;;-146.18;100.00;67994.34;9988093;29;20064;-68
2021/04/23 01:00:49;;;;;;;12.65;5.22;;;;;;;-146.18;100.00;67994.34;9990107;29;20107;-67
2021/04/23 01:05:47;;;;;;;17.35;6.38;;;;;;;-146.18;100.00;67994.34;9988415;29;20126;-67
2021/04/23 01:10:43;;;;;;;27.40;7.05;;;;;;;-146.18;100.00;67994.34;9989141;29;20051;-67
2021/04/23 01:15:39;;;;;;;23.23;6.97;;;;;;;-146.18;100.00;67994.34;9975255;29;20044;-67
2021/04/23 01:20:35;;;;;;;15.60;5.75;;;;;;;-146.18;100.00;67994.34;9990108;29;20067;-67
2021/04/23 01:25:31;;;;;;;16.38;6.43;;;;;;;-146.18;100.00;67994.34;9988167;29;20094;-67
2021/04/23 01:30:27;;;;;;;20.42;6.30;;;;;;;-146.18;100.00;67994.34;9987530;29;20102;-68
2021/04/23 01:35:26;;;;;;;18.98;5.50;;;;;;;-146.18;100.00;67994.34;9987226;29;20126;-68
2021/04/23 01:40:22;;;;;;;23.75;8.77;;;;;;;-146.18;100.00;67994.34;9986693;29;20044;-67
2021/04/23 01:45:18;;;;;;;19.77;6.57;;;;;;;-146.18;100.00;67994.34;9988067;29;20092;-66
2021/04/23 01:50:20;;;;;;;21.52;6.30;;;;;;;-146.18;100.00;67994.34;9983871;29;22009;-67
2021/04/23 01:55:19;;;;;;;18.67;5.60;;;;;;;-146.18;100.00;67994.34;9983626;29;20080;-66
2021/04/23 02:00:24;;;;;;;19.40;7.25;;;;;;;-146.18;100.00;67994.34;9984136;29;20044;-67
2021/04/23 02:05:21;;;;;;;15.23;5.20;;;;;;;-146.18;100.00;67994.34;9988168;29;20491;-68
2021/04/23 02:10:24;;;;;;;21.45;5.95;;;;;;;-146.18;100.00;67994.34;9987019;29;20139;-67
2021/04/23 02:15:24;;;;;;;27.77;5.90;;;;;;;-146.18;100.00;67994.34;9988316;29;20052;-68
2021/04/23 02:20:25;;;;;;;17.13;4.95;;;;;;;-146.18;100.00;67994.34;9986251;29;20048;-69
2021/04/23 02:25:22;;;;;;;21.27;5.63;;;;;;;-146.18;100.00;67994.34;9983693;29;20052;-66
2021/04/23 02:30:26;;;;;;;15.60;4.90;;;;;;;-146.18;100.00;67994.34;9986339;29;20052;-68
2021/04/23 02:35:25;;;;;;;17.33;4.97;;;;;;;-146.18;100.00;67994.34;9985579;29;20092;-66
2021/04/23 02:40:23;;;;;;;20.13;4.90;;;;;;;-146.18;100.00;67994.34;9988559;29;20075;-67
2021/04/23 02:45:22;;;;;;;20.13;5.43;;;;;;;-146.18;100.00;67994.34;9977488;29;20392;-67
2021/04/23 02:50:21;;;;;;;17.08;4.28;;;;;;;-146.18;100.00;67994.34;9994118;29;20052;-67
2021/04/23 02:55:17;;;;;;;16.67;4.00;;;;;;;-146.18;100.00;67994.34;9993492;29;20100;-67
2021/04/23 03:00:17;;;;;;;12.93;4.05;;;;;;;-146.18;100.00;67994.34;9996059;29;20107;-67
2021/04/23 03:05:13;;;;;;;15.43;3.67;;;;;;;-146.18;100.00;67994.34;9996026;29;20053;-67
2021/04/23 03:10:11;;;;;;;13.43;3.70;;;;;;;-146.18;100.00;67994.34;9994022;29;20478;-68
2021/04/23 03:15:08;;;;;;;14.18;3.65;;;;;;;-146.18;100.00;67994.34;9989973;29;20051;-67
2021/04/23 03:20:14;;;;;;;15.07;3.60;;;;;;;-146.18;100.00;67994.34;9987747;29;20088;-66
2021/04/23 03:25:12;;;;;;;11.55;3.08;;;;;;;-146.18;100.00;67994.34;9988425;29;20072;-67
2021/04/23 03:30:16;;;;;;;16.35;3.35;;;;;;;-146.18;100.00;67994.34;9992750;29;20155;-67
2021/04/23 03:35:13;;;;;;;16.80;3.85;;;;;;;-146.18;100.00;67994.34;9990892;29;20061;-68
2021/04/23 03:40:11;;;;;;;14.57;2.60;;;;;;;-146.18;100.00;67994.34;9988352;29;20116;-67
2021/04/23 03:45:10;;;;;;;19.67;2.78;;;;;;;-146.18;100.00;67994.34;9987192;29;21623;-67
2021/04/23 03:50:09;;;;;;;17.20;3.58;;;;;;;-146.18;100.00;67994.34;9991839;29;20052;-67
2021/04/23 03:55:09;;;;;;;22.10;3.60;;;;;;;-146.18;100.00;67994.34;9993254;29;20141;-67
2021/04/23 04:00:08;;;;;;;20.95;4.03;;;;;;;-146.18;100.00;67994.34;9993905;29;20516;-66
2021/04/23 04:05:06;;;;;;;15.77;2.78;;;;;;;-146.18;100.00;67994.34;9991596;29;20056;-67
2021/04/23 04:10:07;;;;;;;14.48;4.05;;;;;;;-146.18;100.00;67994.34;9990784;29;20111;-67
2021/04/23 04:15:05;;;;;;;19.48;4.40;;;;;;;-146.18;100.00;67994.34;9990718;29;20131;-68
2021/04/23 04:20:03;;;;;;;18.15;3.22;;;;;;;-146.18;100.00;67994.34;9987135;29;20088;-66
2021/04/23 04:24:59;;;;;;;14.73;2.92;;;;;;;-146.18;100.00;67994.34;9992232;29;20048;-67
2021/04/23 04:29:55;;;;;;;19.35;3.15;;;;;;;-146.18;100.00;67994.34;9984796;29;20470;-66
2021/04/23 04:34:51;;;;;;;13.73;2.67;;;;;;;-146.18;100.00;67994.34;9986709;29;20048;-67
2021/04/23 04:39:48;;;;;;;14.25;2.72;;;;;;;-146.18;100.00;67994.34;9987537;29;20131;-66
2021/04/23 04:44:43;;;;;;;17.35;2.70;;;;;;;-146.18;100.00;67994.34;9987883;29;20760;-66
2021/04/23 04:49:40;;;;;;;17.38;4.25;;;;;;;-146.18;100.00;67994.34;9986743;29;20043;-64
2021/04/23 04:54:36;;;;;;;11.25;2.70;;;;;;;-146.18;100.00;67994.34;9984063;29;20570;-65
2021/04/23 04:59:32;;;;;;;14.00;2.80;;;;;;;-146.18;100.00;67994.34;9990216;29;20100;-66
2021/04/23 05:04:28;;;;;;;15.98;3.08;;;;;;;-146.18;100.00;67994.34;9989301;29;20110;-65
2021/04/23 05:09:24;;;;;;;13.60;2.85;;;;;;;-146.18;100.00;67994.34;9989145;29;20426;-65
2021/04/23 05:14:20;;;;;;;23.38;3.15;;;;;;;-146.18;100.00;67994.34;9982577;29;20147;-64
2021/04/23 05:19:17;;;;;;;16.77;2.78;;;;;;;-146.18;100.00;67994.34;9984064;29;20104;-65
2021/04/23 05:24:13;;;;;;;19.75;3.05;;;;;;;-146.18;100.00;67994.34;9983528;29;20091;-65
2021/04/23 05:29:09;;;;;;;15.75;2.53;;;;;;;-146.18;100.00;67994.34;9987996;29;20088;-66
2021/04/23 05:34:05;;;;;;;13.70;2.22;;;;;;;-146.18;100.00;67994.34;9988808;29;20115;-67
2021/04/23 05:39:04;;;;;;;13.60;2.60;;;;;;;-146.18;100.00;67994.34;9987979;29;20052;-65
2021/04/23 05:43:59;;;;;;;8.60;1.60;;;;;;;-146.18;100.00;67994.34;9985023;29;20048;-66
2021/04/23 05:48:55;;;;;;;17.10;2.65;;;;;;;-146.18;100.00;67994.34;9987351;29;20517;-64
2021/04/23 05:53:51;;;;;;;16.58;2.88;;;;;;;-146.18;100.00;67994.34;9988653;29;20581;-65
2021/04/23 05:58:48;;;;;;;11.93;2.15;;;;;;;-146.18;100.00;67994.34;9988516;29;20139;-66
2021/04/23 06:03:44;;;;;;;18.02;3.47;;;;;;;-146.18;100.00;67994.34;9988493;29;20056;-66
2021/04/23 06:08:41;;;;;;;15.20;3.33;;;;;;;-146.18;100.00;67994.34;9981643;29;20048;-68
2021/04/23 06:13:37;;;;;;;24.92;3.25;;;;;;;-146.18;100.00;67994.34;9992496;29;20483;-65
2021/04/23 06:18:33;;;;;;;21.00;3.13;;;;;;;-146.18;100.00;67994.34;9985782;29;20157;-66
2021/04/23 06:23:29;;;;;;;17.75;3.88;;;;;;;-146.18;100.00;67994.34;9995595;29;20135;-67
2021/04/23 06:28:25;;;;;;;19.58;3.13;;;;;;;-146.18;100.00;67994.34;9996271;29;20047;-67
2021/04/23 06:33:24;;;;;;;15.50;2.75;;;;;;;-146.18;100.00;67994.34;9995261;29;20100;-67
2021/04/23 06:38:20;;;;;;;22.80;3.47;;;;;;;-146.18;100.00;67994.34;9996253;29;20099;-65
2021/04/23 06:43:16;;;;;;;21.50;2.67;;;;;;;-146.18;100.00;67994.34;9991583;29;20103;-65
2021/04/23 06:48:14;;;;;;;21.33;3.55;;;;;;;-146.18;100.00;67994.34;9997494;29;20139;-65
2021/04/23 06:53:10;;;;;;;20.13;3.45;;;;;;;-146.18;100.00;67994.34;9983549;29;20052;-65
2021/04/23 06:58:06;;;;;;;17.85;2.65;;;;;;;-146.18;100.00;67994.34;9988633;29;20404;-66
2021/04/23 07:03:09;;;;;;;25.42;3.38;;;;;;;-146.18;100.00;67994.34;9992661;29;20546;-66
2021/04/23 07:08:05;;;;;;;18.40;2.90;;;;;;;-146.18;100.00;67994.34;9978226;29;20060;-65
2021/04/23 07:13:03;;;;;;;17.88;3.20;;;;;;;-146.18;100.00;67994.34;9995902;29;20135;-66
2021/04/23 07:18:01;;;;;;;24.50;3.42;;;;;;;-146.18;100.00;67994.34;9988484;29;20546;-66
2021/04/23 07:23:07;;;;;;;25.75;4.90;;;;;;;-146.18;100.00;67994.34;9991088;29;20055;-67
2021/04/23 07:28:04;;;;;;;15.20;2.92;;;;;;;-146.18;100.00;67994.34;9987969;29;20083;-66
2021/04/23 07:33:04;;;;;;;25.73;4.35;;;;;;;-146.18;100.00;67994.34;9990265;29;20051;-66
2021/04/23 07:38:01;;;;;;;22.83;3.33;;;;;;;-146.18;100.00;67994.34;9991940;29;20112;-66
2021/04/23 07:43:00;;;;;;;17.05;3.33;;;;;;;-146.18;100.00;67994.34;9991001;29;20562;-67
2021/04/23 07:48:07;;;;;;;18.48;2.70;;;;;;;-146.18;100.00;67994.34;9993928;29;20486;-67
2021/04/23 07:53:03;;;;;;;19.40;3.03;;;;;;;-146.18;100.00;67994.34;9992181;29;20625;-67
2021/04/23 07:57:59;;;;;;;20.42;3.60;;;;;;;-146.18;100.00;67994.34;9993552;29;20107;-66
2021/04/23 08:02:56;;;;;;;17.48;2.85;;;;;;;-146.18;100.00;67994.34;9990019;29;20418;-67
2021/04/23 08:07:54;;;;;;;13.07;2.67;;;;;;;-146.18;100.00;67994.34;9987513;29;20171;-66
2021/04/23 08:12:53;;;;;;;15.88;2.50;;;;;;;-146.18;100.00;67994.34;9987795;29;20036;-65
2021/04/23 08:17:49;;;;;;;17.17;2.63;;;;;;;-146.18;100.00;67994.34;9992692;29;20164;-66
2021/04/23 08:22:45;;;;;;;13.73;3.42;;;;;;;-146.18;100.00;67994.34;9991736;29;20095;-65
2021/04/23 08:27:41;;;;;;;11.88;1.63;;;;;;;-146.18;100.00;67994.34;9995573;29;20044;-66
2021/04/23 08:32:37;;;;;;;14.13;2.60;;;;;;;-146.18;100.00;67994.34;9993490;29;20091;-66
2021/04/23 08:37:34;;;;;;;16.05;2.97;;;;;;;-146.18;100.00;67994.34;9985661;29;20058;-67
2021/04/23 08:42:31;;;;;;;16.73;2.45;;;;;;;-146.18;100.00;67994.34;9987755;29;20119;-66
2021/04/23 08:47:28;;;;;;;12.40;2.47;;;;;;;-146.18;100.00;67994.34;9993097;29;20067;-66
2021/04/23 08:52:26;;;;;;;20.42;3.08;;;;;;;-146.18;100.00;67994.34;9988532;29;20075;-66
2021/04/23 08:57:22;;;;;;;9.25;2.38;;;;;;;-146.18;100.00;67994.34;9987560;29;20085;-67
2021/04/23 09:02:18;;;;;;;19.73;4.35;;;;;;;-146.18;100.00;67994.34;9992142;29;20526;-66
2021/04/23 09:07:14;;;;;;;17.17;3.33;;;;;;;-146.18;100.00;67994.34;9984630;29;20056;-67
2021/04/23 09:12:37;;;;;;;16.45;2.75;;;;;;;-146.18;100.00;67994.34;9989610;29;20048;-67
2021/04/23 09:17:33;;;;;;;15.27;2.40;;;;;;;-146.18;100.00;67994.34;9978036;29;20048;-67
2021/04/23 09:22:31;;;;;;;12.63;2.40;;;;;;;-146.18;100.00;67994.34;9992344;29;20147;-66
2021/04/23 09:27:35;;;;;;;13.57;2.38;;;;;;;-146.18;100.00;67994.34;9979112;29;20053;-67
2021/04/23 09:32:39;;;;;;;7.05;1.80;;;;;;;-146.18;100.00;67994.34;9986926;29;20044;-67
2021/04/23 09:37:47;;;;;;;12.32;2.70;;;;;;;-146.18;100.00;67994.34;9986923;29;20139;-66
2021/04/23 09:42:53;;;;;;;20.45;3.10;;;;;;;-146.18;100.00;67994.34;9985986;29;20072;-68
2021/04/23 09:47:50;;;;;;;16.75;2.78;;;;;;;-146.18;100.00;67994.34;9988028;29;20048;-67
2021/04/23 09:52:56;;;;;;;13.18;3.17;;;;;;;-146.18;100.00;67994.34;9986221;29;20451;-66
2021/04/23 09:58:01;;;;;;;12.52;2.65;;;;;;;-146.18;100.00;67994.34;9987221;29;20080;-66
2021/04/23 10:02:59;;;;;;;17.23;3.28;;;;;;;-146.18;100.00;67994.34;9988007;29;20048;-65
2021/04/23 10:07:56;;;;;;;12.75;3.13;;;;;;;-146.18;100.00;67994.34;9982877;29;20091;-66
2021/04/23 10:13:00;;;;;;;15.43;3.30;;;;;;;-146.18;100.00;67994.34;9986946;29;20052;-66
2021/04/23 10:17:59;;;;;;;17.85;2.95;;;;;;;-146.18;100.00;67994.34;9983911;29;20514;-66
2021/04/23 10:22:57;;;;;;;14.80;3.13;;;;;;;-146.18;100.00;67994.34;9982914;29;20558;-67
2021/04/23 10:27:56;;;;;;;10.38;2.30;;;;;;;-146.18;100.00;67994.34;9985866;29;20626;-68
2021/04/23 10:32:55;;;;;;;14.05;2.45;;;;;;;-146.18;100.00;67994.34;9985476;29;20439;-67
2021/04/23 10:37:52;;;;;;;11.57;2.28;;;;;;;-146.18;100.00;67994.34;9980244;29;20175;-73
2021/04/23 10:42:56;;;;;;;12.60;2.80;;;;;;;-146.18;100.00;67994.34;9983512;29;20507;-68
2021/04/23 10:47:55;;;;;;;11.45;2.58;;;;;;;-146.18;100.00;67994.34;9983139;29;20052;-67
2021/04/23 10:53:00;;;;;;;11.25;2.80;;;;;;;-146.18;100.00;67994.34;9987588;29;20044;-68
2021/04/23 10:57:56;;;;;;;12.82;2.55;;;;;;;-146.18;100.00;67994.34;9982439;29;20080;-67
2021/04/23 11:03:20;;;;;;;12.75;2.63;;;;;;;-146.18;100.00;67994.34;9986851;29;20469;-66
2021/04/23 11:08:16;;;;;;;11.70;2.43;;;;;;;-146.18;100.00;67994.34;9984637;29;20055;-67
2021/04/23 11:13:22;;;;;;;8.80;2.75;;;;;;;-146.18;100.00;67994.34;9996525;29;20111;-67
2021/04/23 11:18:28;;;;;;;14.52;3.22;;;;;;;-146.18;100.00;67994.34;9991210;29;20048;-67
2021/04/23 11:23:24;;;;;;;14.57;3.00;;;;;;;-146.18;100.00;67994.34;9994549;29;20553;-68
2021/04/23 11:28:19;;;;;;;14.02;3.03;;;;;;;-146.18;100.00;67994.34;9991052;29;20143;-67
2021/04/23 11:33:52;;;;;;;13.65;2.72;;;;;;;-146.18;100.00;67994.34;9992398;29;20170;-67
2021/04/23 11:38:57;;;;;;;14.43;3.40;;;;;;;-146.18;100.00;67994.34;9992400;29;20044;-68
2021/04/23 11:43:53;;;;;;;33.67;2.92;;;;;;;-146.18;100.00;67994.34;9989669;29;20044;-67
2021/04/23 11:48:52;;;;;;;10.93;2.92;;;;;;;-146.18;100.00;67994.34;9992634;29;20055;-67
2021/04/23 11:53:49;;;;;;;16.27;3.17;;;;;;;-146.18;100.00;67994.34;9985138;29;20044;-68
2021/04/23 11:58:47;;;;;;;12.10;3.10;;;;;;;-146.18;100.00;67994.34;9989363;29;20048;-69
2021/04/23 12:03:46;;;;;;;10.68;2.28;;;;;;;-146.18;100.00;67994.34;9988460;29;20090;-68
2021/04/23 12:08:43;;;;;;;9.60;2.45;;;;;;;-146.18;100.00;67994.34;9989437;29;20076;-67
2021/04/23 12:13:41;;;;;;;15.88;2.95;;;;;;;-146.18;100.00;67994.34;9991303;29;20451;-66
2021/04/23 12:18:46;;;;;;;12.98;2.67;;;;;;;-146.18;100.00;67994.34;9990551;29;20107;-67
2021/04/23 12:23:43;;;;;;;11.35;2.50;;;;;;;-146.18;100.00;67994.34;9989754;29;20534;-67
2021/04/23 12:28:41;;;;;;;11.35;3.13;;;;;;;-146.18;100.00;67994.34;9989714;29;20499;-67
2021/04/23 12:33:49;;;;;;;19.27;3.58;;;;;;;-146.18;100.00;67994.34;9979373;29;20471;-66
2021/04/23 12:38:51;;;;;;;16.15;3.85;;;;;;;-146.18;100.00;67994.34;9987455;29;20094;-66
2021/04/23 12:43:51;;;;;;;13.43;2.72;;;;;;;-146.18;100.00;67994.34;9987237;29;20131;-66
2021/04/23 12:48:56;;;;;;;14.73;3.33;;;;;;;-146.18;100.00;67994.34;9986708;29;20048;-65
2021/04/23 12:53:53;;;;;;;13.57;2.58;;;;;;;-146.18;100.00;67994.34;9987340;29;20109;-67
2021/04/23 12:58:50;;;;;;;11.68;2.63;;;;;;;-146.18;100.00;67994.34;9986359;29;20495;-67
2021/04/23 13:04:02;;;;;;;12.43;2.60;;;;;;;-146.18;100.00;67994.34;9983085;29;20050;-67
2021/04/23 13:09:04;;;;;;;11.65;2.55;;;;;;;-146.18;100.00;67994.34;9983781;29;20067;-66
2021/04/23 13:14:16;;;;;;;10.13;2.60;;;;;;;-146.18;100.00;67994.34;9987262;29;20052;-66
2021/04/23 13:19:12;;;;;;;11.70;2.50;;;;;;;-146.18;100.00;67994.34;9990176;29;20080;-66
2021/04/23 13:24:19;;;;;;;17.15;3.10;;;;;;;-146.18;100.00;67994.34;9983907;29;20051;-66
2021/04/23 13:29:14;;;;;;;15.85;2.95;;;;;;;-146.18;100.00;67994.34;9989671;29;20056;-67
2021/04/23 13:34:12;;;;;;;8.75;2.47;;;;;;;-146.18;100.00;67994.34;9982722;29;20090;-66
2021/04/23 13:39:09;;;;;;;15.93;3.00;;;;;;;-146.18;100.00;67994.34;9987801;29;20056;-65
2021/04/23 13:44:08;;;;;;;14.93;2.63;;;;;;;-146.18;100.00;67994.34;9984632;29;20570;-67
2021/04/23 13:49:14;;;;;;;11.25;2.40;;;;;;;-146.18;100.00;67994.34;9981492;29;20086;-67
2021/04/23 13:54:24;;;;;;;16.23;3.05;;;;;;;-146.18;100.00;67994.34;9974649;29;20045;-66
2021/04/23 13:59:23;;;;;;;16.20;2.53;;;;;;;-146.18;100.00;67994.34;9985182;29;20044;-66
2021/04/23 14:04:29;;;;;;;11.75;2.60;;;;;;;-146.18;100.00;67994.34;9982801;29;20410;-66
2021/04/23 14:09:26;;;;;;;15.25;2.33;;;;;;;-146.18;100.00;67994.34;9983234;29;20134;-67
2021/04/23 14:14:24;;;;;;;13.93;2.53;;;;;;;-146.18;100.00;67994.34;9984894;29;20047;-66
2021/04/23 14:19:21;;;;;;;12.20;2.40;;;;;;;-146.18;100.00;67994.34;9982841;29;20048;-66
2021/04/23 14:24:18;;;;;;;9.02;2.15;;;;;;;-146.18;100.00;67994.34;9991893;29;20040;-66
2021/04/23 14:29:18;;;;;;;13.52;2.63;;;;;;;-146.18;100.00;67994.34;9979431;29;20079;-66
2021/04/23 14:34:15;;;;;;;10.65;2.63;;;;;;;-146.18;100.00;67994.34;9980584;29;20076;-66
2021/04/23 14:39:14;;;;;;;10.38;2.40;;;;;;;-146.18;100.00;67994.34;9983501;29;20056;-65
2021/04/23 14:44:11;;;;;;;14.10;2.15;;;;;;;-146.18;100.00;67994.34;9987846;29;20115;-66
2021/04/23 14:49:07;;;;;;;9.98;2.38;;;;;;;-146.18;100.00;67994.34;9979156;29;20836;-66
2021/04/23 14:54:04;;;;;;;13.23;2.85;;;;;;;-146.18;100.00;67994.34;9989081;29;20055;-66
2021/04/23 14:59:01;;;;;;;17.45;2.55;;;;;;;-146.18;100.00;67994.34;9989840;29;20467;-66
2021/04/23 15:03:57;;;;;;;12.27;2.13;;;;;;;-146.18;100.00;67994.34;9992500;29;20099;-66
2021/04/23 15:08:53;;;;;;;14.35;2.85;;;;;;;-146.18;100.00;67994.34;9990081;29;20048;-66
2021/04/23 15:13:50;;;;;;;15.30;2.78;;;;;;;-146.18;100.00;67994.34;9991508;29;20065;-68
2021/04/23 15:18:46;;;;;;;14.18;3.22;;;;;;;-146.18;100.00;67994.34;9987900;29;20092;-66
2021/04/23 15:23:42;;;;;;;13.52;3.10;;;;;;;-146.18;100.00;67994.34;9995008;29;20051;-65
2021/04/23 15:28:38;;;;;;;14.25;2.70;;;;;;;-146.18;100.00;67994.34;9974121;29;20079;-66
2021/04/23 15:33:34;;;;;;;8.60;2.80;;;;;;;-146.18;100.00;67994.34;9992731;29;20055;-65
2021/04/23 15:38:31;;;;;;;16.40;4.40;;;;;;;-146.18;100.00;67994.34;9983188;29;20062;-65
2021/04/23 15:43:27;;;;;;;12.95;3.42;;;;;;;-146.18;100.00;67994.34;9993648;29;20051;-66
2021/04/23 15:48:23;;;;;;;12.65;3.17;;;;;;;-146.18;100.00;67994.34;9989959;29;20068;-66
2021/04/23 15:53:20;;;;;;;12.65;3.78;;;;;;;-146.18;100.00;67994.34;9985085;29;20428;-67
2021/04/23 15:58:16;;;;;;;13.65;3.92;;;;;;;-146.18;100.00;67994.34;9987439;29;20669;-67
2021/04/23 16:03:13;;;;;;;13.48;4.20;;;;;;;-146.18;100.00;67994.34;9992292;29;20099;-67
2021/04/23 16:08:09;;;;;;;10.38;3.97;;;;;;;-146.18;100.00;67994.34;9988989;29;20116;-67
2021/04/23 16:13:06;;;;;;;17.52;4.38;;;;;;;-146.18;100.00;67994.34;9992675;29;20086;-67
2021/04/23 16:18:03;;;;;;;12.50;4.20;;;;;;;-146.18;100.00;67994.34;9982017;29;20044;-67
2021/04/23 16:23:00;;;;;;;14.70;3.80;;;;;;;-146.18;100.00;67994.34;9988674;29;20048;-66
2021/04/23 16:27:56;;;;;;;14.02;3.90;;;;;;;-146.18;100.00;67994.34;9977130;29;20056;-66
2021/04/23 16:32:53;;;;;;;14.13;4.18;;;;;;;-146.18;100.00;67994.34;9992545;29;20072;-69
2021/04/23 16:37:50;;;;;;;14.73;4.35;;;;;;;-146.18;100.00;67994.34;9983688;29;20040;-66
2021/04/23 16:42:54;;;;;;;16.40;3.47;;;;;;;-146.18;100.00;67994.34;9985635;29;20052;-66
2021/04/23 16:47:51;;;;;;;12.60;4.85;;;;;;;-146.18;100.00;67994.34;9990612;29;20076;-66
2021/04/23 16:52:47;;;;;;;12.80;4.80;;;;;;;-146.18;100.00;67994.34;9989575;29;20071;-66
2021/04/23 16:57:43;;;;;;;13.75;3.95;;;;;;;-146.18;100.00;67994.34;9984154;29;20052;-66
2021/04/23 17:02:40;;;;;;;16.50;4.57;;;;;;;-146.18;100.00;67994.34;9984609;29;20048;-66
2021/04/23 17:07:36;;;;;;;12.00;3.45;;;;;;;-146.18;100.00;67994.34;9986492;29;20056;-64
2021/04/23 17:12:32;;;;;;;17.48;5.95;;;;;;;-146.18;100.00;67994.34;9983796;29;20040;-65
2021/04/23 17:17:28;;;;;;;12.55;4.07;;;;;;;-146.18;100.00;67994.34;9986079;29;20048;-66
2021/04/23 17:22:30;;;;;;;16.38;4.57;;;;;;;-146.18;100.00;67994.34;9982684;29;20044;-65
2021/04/23 17:27:26;;;;;;;11.82;5.25;;;;;;;-146.18;100.00;67994.34;9985457;29;20060;-65
2021/04/23 17:32:23;;;;;;;13.05;4.97;;;;;;;-146.18;100.00;67994.34;9989463;29;20113;-65
2021/04/23 17:37:19;;;;;;;14.95;8.23;;;;;;;-146.18;100.00;67994.34;9984481;29;20138;-65
2021/04/23 17:42:15;;;;;;;9.55;5.03;;;;;;;-146.18;100.00;67994.34;9986935;29;20091;-66
2021/04/23 17:47:11;;;;;;;14.23;5.10;;;;;;;-146.18;100.00;67994.34;9990743;29;20111;-65
2021/04/23 17:52:07;;;;;;;11.27;4.70;;;;;;;-146.18;100.00;67994.34;9985672;29;20175;-66
2021/04/23 17:57:04;;;;;;;10.52;5.35;;;;;;;-146.18;100.00;67994.34;9981273;29;20048;-67
2021/04/23 18:02:00;;;;;;;12.63;4.80;;;;;;;-146.18;100.00;67994.34;9988034;29;20044;-66
2021/04/23 18:06:56;;;;;;;10.93;4.03;;;;;;;-146.18;100.00;67994.34;9985430;29;20060;-65
2021/04/23 18:11:52;;;;;;;13.20;5.57;;;;;;;-146.18;100.00;67994.34;9990010;29;20462;-65
2021/04/23 18:16:53;;;;;;;14.73;6.70;;;;;;;-146.18;100.00;67994.34;9985516;29;20040;-66
2021/04/23 18:21:54;;;;;;;11.95;5.38;;;;;;;-146.18;100.00;67994.34;9997491;29;20145;-64
2021/04/23 18:26:50;;;;;;;15.63;6.25;;;;;;;-146.18;100.00;67994.34;9995396;29;20143;-68
2021/04/23 18:31:46;;;;;;;12.75;5.47;;;;;;;-146.18;100.00;67994.34;9993875;29;20092;-67
2021/04/23 18:36:42;;;;;;;13.15;6.95;;;;;;;-146.18;100.00;67994.34;9994286;29;20044;-68
2021/04/23 18:41:41;;;;;;;17.63;5.90;;;;;;;-146.18;100.00;67994.34;9996812;29;20474;-67
2021/04/23 18:46:39;;;;;;;17.13;7.47;;;;;;;-146.18;100.00;67994.34;9994068;29;20044;-67
2021/04/23 18:51:35;;;;;;;11.15;5.18;;;;;;;-146.18;100.00;67994.34;9993975;29;20111;-67
2021/04/23 18:56:31;;;;;;;12.38;5.55;;;;;;;-146.18;100.00;67994.34;9989052;29;20044;-67
2021/04/23 19:01:27;;;;;;;11.93;5.57;;;;;;;-146.18;100.00;67994.34;9990256;29;20532;-67
2021/04/23 19:06:25;;;;;;;11.85;5.47;;;;;;;-146.18;100.00;67994.34;9993107;29;20048;-67
2021/04/23 19:11:24;;;;;;;14.45;6.07;;;;;;;-146.18;100.00;67994.34;9988330;29;20120;-66
2021/04/23 19:16:20;;;;;;;18.52;6.28;;;;;;;-146.18;100.00;67994.34;9987172;29;20503;-68
2021/04/23 19:21:17;;;;;;;14.07;6.38;;;;;;;-146.18;100.00;67994.34;9976115;29;20059;-66
2021/04/23 19:26:13;;;;;;;11.32;5.22;;;;;;;-146.18;100.00;67994.34;9994132;29;20060;-65
2021/04/23 19:31:09;;;;;;;20.85;6.60;;;;;;;-146.18;100.00;67994.34;9993209;29;20056;-66
2021/04/23 19:36:06;;;;;;;13.98;6.25;;;;;;;-146.18;100.00;67994.34;9989641;29;20140;-68
2021/04/23 19:41:02;;;;;;;16.45;6.13;;;;;;;-146.18;100.00;67994.34;9992669;29;20059;-66
2021/04/23 19:46:07;;;;;;;14.70;6.05;;;;;;;-146.18;100.00;67994.34;9985317;29;20075;-66
2021/04/23 19:51:04;;;;;;;16.48;7.40;;;;;;;-146.18;100.00;67994.34;9992494;29;20407;-66
2021/04/23 19:56:02;;;;;;;20.58;7.38;;;;;;;-146.18;100.00;67994.34;9991171;29;20092;-66
2021/04/23 20:00:59;;;;;;;13.98;6.72;;;;;;;-146.18;100.00;67994.34;9991347;29;20495;-66
2021/04/23 20:05:56;;;;;;;20.77;6.97;;;;;;;-146.18;100.00;67994.34;9988089;29;20235;-66
2021/04/23 20:10:53;;;;;;;18.15;8.10;;;;;;;-146.18;100.00;67994.34;9989514;29;20092;-65
2021/04/23 20:15:49;;;;;;;16.98;8.35;;;;;;;-146.18;100.00;67994.34;9991654;29;20071;-66
2021/04/23 20:20:45;;;;;;;25.17;9.27;;;;;;;-146.18;100.00;67994.34;9987799;29;20075;-66
2021/04/23 20:25:42;;;;;;;20.27;7.85;;;;;;;-146.18;100.00;67994.34;9977180;29;20115;-66
2021/04/23 20:30:38;;;;;;;20.85;8.32;;;;;;;-146.18;100.00;67994.34;9986740;29;20525;-66
2021/04/23 20:35:35;;;;;;;20.23;9.35;;;;;;;-146.18;100.00;67994.34;9988096;29;20051;-67
2021/04/23 20:40:32;;;;;;;17.83;8.50;;;;;;;-146.18;100.00;67994.34;9988497;29;20052;-65
2021/04/23 20:45:28;;;;;;;16.63;8.35;;;;;;;-146.18;100.00;67994.34;9988035;29;20052;-66
2021/04/23 20:50:25;;;;;;;19.70;8.95;;;;;;;-146.18;100.00;67994.34;9974830;29;20064;-68
2021/04/23 20:55:21;;;;;;;23.58;10.40;;;;;;;-146.18;100.00;67994.34;9981858;29;20052;-66
2021/04/23 21:00:18;;;;;;;21.55;8.48;;;;;;;-146.18;100.00;67994.34;9991010;29;20112;-66
2021/04/23 21:05:14;;;;;;;21.55;9.35;;;;;;;-146.18;100.00;67994.34;9990123;29;20067;-65
2021/04/23 21:10:12;;;;;;;20.83;8.68;;;;;;;-146.18;100.00;67994.34;9985638;29;20083;-67
2021/04/23 21:15:12;;;;;;;19.17;8.77;;;;;;;-146.18;100.00;67994.34;9977947;29;20108;-65
2021/04/23 21:20:09;;;;;;;24.58;12.15;;;;;;;-146.18;100.00;67994.34;9986590;29;20111;-67
2021/04/23 21:25:06;;;;;;;15.93;8.18;;;;;;;-146.18;100.00;67994.34;9987300;29;20055;-66
2021/04/23 21:30:06;;;;;;;20.85;10.65;;;;;;;-146.18;100.00;67994.34;9984178;29;20525;-66
2021/04/23 21:35:02;;;;;;;21.63;10.07;;;;;;;-146.18;100.00;67994.34;9986068;29;20562;-66
2021/04/23 21:39:58;;;;;;;20.70;9.13;;;;;;;-146.18;100.00;67994.34;9987859;29;20052;-66
2021/04/23 21:44:54;;;;;;;22.33;9.38;;;;;;;-146.18;100.00;67994.34;9988935;29;20071;-67
2021/04/23 21:49:50;;;;;;;21.70;9.35;;;;;;;-146.18;100.00;67994.34;9990717;29;20044;-67
2021/04/23 21:54:46;;;;;;;18.10;9.13;;;;;;;-146.18;100.00;67994.34;9984665;29;20051;-68
2021/04/23 21:59:42;;;;;;;24.73;10.07;;;;;;;-146.18;100.00;67994.34;9984590;29;20054;-66
2021/04/23 22:04:38;;;;;;;17.60;9.43;;;;;;;-146.18;100.00;67994.34;9980015;29;20096;-66
2021/04/23 22:09:34;;;;;;;17.70;9.88;;;;;;;-146.18;100.00;67994.34;9988221;29;20044;-65
2021/04/23 22:14:30;;;;;;;21.75;10.63;;;;;;;-146.18;100.00;67994.34;9985854;29;20048;-67
2021/04/23 22:19:26;;;;;;;23.90;11.60;;;;;;;-146.18;100.00;67994.34;9985649;29;20056;-68